Time;durP1;ratioP1;P1;durP2;ratioP2;P2;SDS_P1;SDS_P2;PMS_P1;PMS_P2;Temp;Humidity;BMP_temperature;BMP_pressure;BME280_temperature;BME280_humidity;BME280_pressure;Samples;Min_cycle;Max_cycle;Signal;HPM_P1;HPM_P2
2022/09/30 00:01:52;;;;;;;26.60;19.20;;;;;;;7.15;74.35;99816.42;102902;1282;108612;-65
2022/09/30 00:04:22;;;;;;;25.60;19.90;;;;;;;7.18;73.97;99818.29;103196;1281;99502;-65
2022/09/30 00:06:52;;;;;;;24.80;19.50;;;;;;;7.21;74.10;99818.23;102981;1282;108921;-65
2022/09/30 00:09:20;;;;;;;24.80;18.50;;;;;;;7.25;74.41;99814.60;103229;1281;95325;-65
2022/09/30 00:11:49;;;;;;;24.80;19.60;;;;;;;7.30;74.04;99812.02;103263;1281;95560;-65
2022/09/30 00:14:20;;;;;;;25.80;19.10;;;;;;;7.35;73.44;99809.60;103158;1280;108977;-66
2022/09/30 00:16:49;;;;;;;25.60;20.10;;;;;;;7.36;73.03;99808.34;103142;1282;99564;-66
2022/09/30 00:19:17;;;;;;;26.90;19.70;;;;;;;7.38;72.57;99811.49;103005;1282;108947;-66
2022/09/30 00:21:45;;;;;;;24.60;18.40;;;;;;;7.36;72.97;99814.54;103344;1281;95455;-66
2022/09/30 00:24:13;;;;;;;25.60;19.20;;;;;;;7.29;73.23;99819.10;102964;1282;96208;-65
2022/09/30 00:26:41;;;;;;;27.20;19.40;;;;;;;7.32;73.00;99819.58;102795;1281;109690;-65
2022/09/30 00:29:10;;;;;;;26.40;20.40;;;;;;;7.32;72.80;99820.83;102737;1282;99534;-64
2022/09/30 00:31:38;;;;;;;27.90;20.20;;;;;;;7.30;72.88;99823.15;103022;1281;108015;-66
2022/09/30 00:34:06;;;;;;;27.60;20.30;;;;;;;7.29;72.79;99825.29;103307;1281;95567;-65
2022/09/30 00:36:44;;;;;;;27.70;20.70;;;;;;;7.27;72.47;99818.45;103213;1281;95325;-65
2022/09/30 00:39:15;;;;;;;25.80;19.70;;;;;;;7.24;72.41;99824.33;103114;1280;109506;-65
2022/09/30 00:41:45;;;;;;;27.60;21.50;;;;;;;7.14;72.70;99833.03;103314;1280;99612;-65
2022/09/30 00:44:47;;;;;;;27.60;20.20;;;;;;;7.03;73.34;99830.77;103178;1281;109005;-66
2022/09/30 00:47:40;;;;;;;27.30;20.40;;;;;;;7.01;73.51;99823.23;103248;1280;95434;-64
2022/09/30 00:50:31;;;;;;;28.70;20.70;;;;;;;6.99;73.50;99820.80;103143;1281;95402;-66
2022/09/30 00:53:06;;;;;;;28.10;20.40;;;;;;;6.97;73.50;99818.91;103134;1281;109856;-66
2022/09/30 00:55:39;;;;;;;26.00;18.80;;;;;;;7.00;73.61;99822.91;103132;1281;99520;-65
2022/09/30 00:58:10;;;;;;;27.70;19.80;;;;;;;7.03;72.91;99822.13;103157;1282;108914;-65
2022/09/30 01:00:39;;;;;;;25.40;19.00;;;;;;;7.05;72.70;99820.16;103318;1281;95271;-66
2022/09/30 01:03:07;;;;;;;27.10;19.30;;;;;;;7.08;72.49;99817.27;103303;1279;95435;-63
2022/09/30 01:05:35;;;;;;;27.20;20.50;;;;;;;7.10;72.73;99819.86;103041;1281;109717;-67
2022/09/30 01:08:06;;;;;;;28.50;21.10;;;;;;;7.12;73.14;99822.49;103126;1281;99431;-66
2022/09/30 01:10:34;;;;;;;27.10;20.50;;;;;;;7.10;72.86;99820.58;103145;1281;109426;-64
2022/09/30 01:13:03;;;;;;;27.70;20.20;;;;;;;7.11;72.73;99818.63;103092;1281;95295;-66
2022/09/30 01:15:44;;;;;;;27.30;20.20;;;;;;;7.12;72.22;99818.23;103284;1281;96739;-65
2022/09/30 01:18:37;;;;;;;28.80;20.30;;;;;;;7.16;72.40;99820.08;103368;1281;109767;-65
2022/09/30 01:21:07;;;;;;;27.50;19.30;;;;;;;7.17;72.75;99818.30;102959;1281;99519;-65
2022/09/30 01:23:56;;;;;;;27.60;20.40;;;;;;;7.15;72.54;99816.05;102895;1281;108843;-64
2022/09/30 01:27:04;;;;;;;25.30;19.00;;;;;;;7.09;73.05;99820.43;103095;1281;96696;-64
2022/09/30 01:29:44;;;;;;;25.60;17.90;;;;;;;6.94;73.74;99821.09;103127;1280;96244;-65
2022/09/30 01:32:34;;;;;;;24.40;17.60;;;;;;;6.92;73.85;99823.24;103068;1281;110839;-63
2022/09/30 01:35:23;;;;;;;24.30;18.60;;;;;;;6.99;73.68;99833.34;103158;1281;99566;-65
2022/09/30 01:38:13;;;;;;;28.00;18.90;;;;;;;7.03;73.53;99827.98;103142;1281;109062;-62
2022/09/30 01:41:05;;;;;;;26.80;19.30;;;;;;;7.07;73.33;99828.05;103162;1281;95731;-65
2022/09/30 01:43:46;;;;;;;26.10;19.00;;;;;;;7.10;72.95;99834.35;102909;1281;96154;-64
2022/09/30 01:46:43;;;;;;;25.50;18.30;;;;;;;7.05;73.46;99842.73;103319;1281;108844;-65
2022/09/30 01:49:33;;;;;;;26.20;19.00;;;;;;;7.01;74.59;99844.07;103172;1281;99900;-67
2022/09/30 01:52:30;;;;;;;26.40;18.60;;;;;;;7.02;75.01;99842.27;103036;1281;108900;-66
2022/09/30 01:55:16;;;;;;;25.00;18.80;;;;;;;7.01;75.74;99850.23;103078;1281;95298;-66
2022/09/30 01:58:02;;;;;;;23.20;17.20;;;;;;;6.97;76.30;99851.55;103090;1281;95280;-65
2022/09/30 02:00:35;;;;;;;24.10;17.80;;;;;;;7.04;75.41;99850.36;103112;1281;109721;-65
2022/09/30 02:03:48;;;;;;;23.30;17.50;;;;;;;7.11;74.68;99855.16;103077;1282;99492;-67
2022/09/30 02:06:24;;;;;;;24.10;17.60;;;;;;;7.18;74.25;99861.02;102771;1282;107840;-64
2022/09/30 02:09:06;;;;;;;24.40;18.40;;;;;;;7.23;73.88;99862.87;103115;1280;95841;-68
2022/09/30 02:11:36;;;;;;;23.30;17.30;;;;;;;7.25;73.70;99859.64;103151;1281;95570;-65
2022/09/30 02:14:12;;;;;;;21.50;16.70;;;;;;;7.25;73.10;99863.17;103130;1281;109732;-66
2022/09/30 02:16:47;;;;;;;23.60;16.70;;;;;;;7.26;73.03;99868.81;103167;1281;98404;-65
2022/09/30 02:19:33;;;;;;;24.40;18.20;;;;;;;7.24;73.12;99874.30;103377;1281;109243;-66
2022/09/30 02:22:09;;;;;;;23.90;17.50;;;;;;;7.27;72.91;99879.19;102973;1282;95236;-66
2022/09/30 02:24:38;;;;;;;25.10;18.50;;;;;;;7.30;72.66;99882.48;103142;1279;96147;-68
2022/09/30 02:27:13;;;;;;;23.30;17.70;;;;;;;7.30;72.46;99883.89;103244;1282;109714;-66
2022/09/30 02:29:48;;;;;;;21.80;16.40;;;;;;;7.28;72.48;99882.36;103241;1281;98916;-67
2022/09/30 02:32:24;;;;;;;22.00;15.40;;;;;;;7.27;72.68;99887.84;102833;1282;108849;-66
2022/09/30 02:35:06;;;;;;;24.00;17.00;;;;;;;7.25;72.27;99890.52;103092;1281;95960;-67
2022/09/30 02:37:39;;;;;;;24.10;17.70;;;;;;;7.22;72.23;99890.78;103019;1282;95683;-67
2022/09/30 02:40:10;;;;;;;23.00;16.90;;;;;;;7.14;72.79;99890.23;103106;1281;109791;-65
2022/09/30 02:42:40;;;;;;;23.00;17.40;;;;;;;7.03;73.07;99894.14;103295;1280;99438;-72
2022/09/30 02:45:12;;;;;;;22.80;16.80;;;;;;;7.01;73.41;99892.42;103152;1282;107816;-65
2022/09/30 02:48:09;;;;;;;22.90;16.30;;;;;;;7.03;73.24;99895.56;103024;1282;96808;-63
2022/09/30 02:50:47;;;;;;;22.00;16.40;;;;;;;6.98;73.21;99900.27;103203;1281;95331;-65
2022/09/30 02:53:36;;;;;;;22.80;16.80;;;;;;;6.92;73.85;99902.84;102979;1281;109767;-68
2022/09/30 02:56:26;;;;;;;23.20;17.30;;;;;;;6.96;73.71;99907.88;103094;1280;99516;-65
2022/09/30 02:58:56;;;;;;;22.60;16.30;;;;;;;7.00;73.09;99907.09;103135;1281;108418;-66
2022/09/30 03:01:24;;;;;;;21.90;15.90;;;;;;;7.00;73.05;99906.38;103458;1281;96493;-65
2022/09/30 03:03:55;;;;;;;21.10;15.80;;;;;;;7.01;72.56;99903.19;103108;1281;95309;-68
2022/09/30 03:06:24;;;;;;;20.80;16.40;;;;;;;7.02;72.75;99901.23;103134;1281;108610;-66
2022/09/30 03:08:52;;;;;;;22.00;16.20;;;;;;;7.07;72.43;99902.02;102950;1282;99278;-68
2022/09/30 03:11:23;;;;;;;23.60;17.90;;;;;;;7.06;71.95;99905.05;103099;1281;108904;-64
2022/09/30 03:14:09;;;;;;;22.10;16.50;;;;;;;7.02;72.22;99902.47;103488;1281;95335;-65
2022/09/30 03:16:46;;;;;;;23.20;16.90;;;;;;;7.02;72.24;99897.02;103136;1281;95573;-67
2022/09/30 03:19:32;;;;;;;23.30;17.30;;;;;;;6.99;71.92;99896.16;103104;1281;109728;-65
2022/09/30 03:22:10;;;;;;;23.30;17.10;;;;;;;6.95;72.40;99899.08;102928;1282;99496;-68
2022/09/30 03:24:59;;;;;;;23.50;16.50;;;;;;;6.94;72.48;99906.52;103108;1281;108674;-65
2022/09/30 03:27:48;;;;;;;20.70;16.30;;;;;;;6.92;72.56;99913.77;103558;1279;95256;-65
2022/09/30 03:30:20;;;;;;;23.10;16.50;;;;;;;6.81;72.74;99923.16;102987;1282;95315;-67
2022/09/30 03:33:24;;;;;;;23.60;18.00;;;;;;;6.73;73.37;99925.08;103118;1281;109127;-63
2022/09/30 03:36:01;;;;;;;22.40;17.00;;;;;;;6.66;73.85;99922.20;102955;1282;99578;-66
2022/09/30 03:38:35;;;;;;;23.20;17.10;;;;;;;6.63;73.98;99918.55;103050;1281;109448;-67
2022/09/30 03:41:21;;;;;;;22.30;16.20;;;;;;;6.64;74.11;99921.19;103085;1282;96061;-66
2022/09/30 03:44:32;;;;;;;20.90;16.00;;;;;;;6.70;74.08;99920.72;103103;1281;95663;-67
2022/09/30 03:47:07;;;;;;;22.80;17.20;;;;;;;6.69;73.79;99918.78;103037;1281;109707;-65
2022/09/30 03:49:41;;;;;;;23.70;17.30;;;;;;;6.64;73.86;99917.30;103075;1281;98929;-65
2022/09/30 03:52:13;;;;;;;24.30;17.40;;;;;;;6.60;74.23;99913.69;103343;1281;108825;-66
2022/09/30 03:54:52;;;;;;;21.10;16.30;;;;;;;6.63;74.36;99910.44;103135;1281;95244;-67
2022/09/30 03:57:20;;;;;;;20.80;15.70;;;;;;;6.70;73.65;99915.42;103047;1282;96157;-63
2022/09/30 03:59:48;;;;;;;24.10;16.70;;;;;;;6.71;73.97;99920.36;102937;1282;109743;-67
2022/09/30 04:02:15;;;;;;;22.80;17.30;;;;;;;6.65;73.84;99919.73;103128;1281;99556;-65
2022/09/30 04:04:43;;;;;;;23.10;17.40;;;;;;;6.62;74.18;99917.67;103187;1281;107582;-67
2022/09/30 04:07:11;;;;;;;21.70;17.00;;;;;;;6.63;74.36;99920.67;103167;1281;95774;-65
2022/09/30 04:09:39;;;;;;;24.10;17.10;;;;;;;6.64;74.32;99923.81;103082;1281;96205;-66
2022/09/30 04:12:08;;;;;;;22.10;16.80;;;;;;;6.67;74.10;99925.88;103004;1282;110097;-65
2022/09/30 04:14:36;;;;;;;21.70;16.00;;;;;;;6.69;74.09;99932.38;103102;1281;99527;-66
2022/09/30 04:17:05;;;;;;;21.70;16.10;;;;;;;6.66;74.01;99927.31;102947;1282;108268;-66
2022/09/30 04:19:38;;;;;;;21.50;16.10;;;;;;;6.63;73.94;99937.77;103137;1281;95576;-65
2022/09/30 04:22:08;;;;;;;21.60;17.20;;;;;;;6.57;74.00;99946.53;103012;1282;95470;-65
2022/09/30 04:24:36;;;;;;;22.40;17.20;;;;;;;6.48;73.89;99951.63;103310;1281;109818;-66
2022/09/30 04:27:04;;;;;;;21.60;16.40;;;;;;;6.45;74.30;99954.31;103149;1281;99275;-67
2022/09/30 04:29:31;;;;;;;19.60;15.90;;;;;;;6.50;74.14;99958.45;103521;1281;109048;-65
2022/09/30 04:32:00;;;;;;;21.40;16.30;;;;;;;6.58;73.97;99962.56;103254;1281;95336;-67
2022/09/30 04:34:27;;;;;;;21.30;16.20;;;;;;;6.64;73.48;99960.69;103106;1281;96079;-65
2022/09/30 04:36:55;;;;;;;22.50;16.90;;;;;;;6.68;73.51;99964.85;103079;1281;109724;-66
2022/09/30 04:39:23;;;;;;;21.20;16.50;;;;;;;6.67;73.48;99971.23;103163;1280;99373;-66
2022/09/30 04:41:52;;;;;;;60.10;43.80;;;;;;;6.61;73.85;99972.39;102930;1282;108972;-65
2022/09/30 04:44:21;;;;;;;26.10;19.70;;;;;;;6.64;73.84;99973.04;103161;1281;96092;-66
2022/09/30 04:46:50;;;;;;;21.60;16.90;;;;;;;6.69;73.51;99974.36;102849;1282;96204;-65
2022/09/30 04:49:17;;;;;;;23.40;17.10;;;;;;;6.62;73.48;99974.13;103155;1281;109492;-66
2022/09/30 04:51:45;;;;;;;24.20;17.40;;;;;;;6.52;73.80;99976.06;103085;1281;99704;-66
2022/09/30 04:54:15;;;;;;;23.20;17.20;;;;;;;6.45;74.06;99977.95;103089;1281;108852;-66
2022/09/30 04:56:43;;;;;;;22.30;16.50;;;;;;;6.43;74.36;99981.86;103062;1281;95313;-66
2022/09/30 04:59:11;;;;;;;22.40;16.50;;;;;;;6.47;74.67;99978.10;103046;1280;96201;-66
2022/09/30 05:01:41;;;;;;;23.60;17.40;;;;;;;6.52;74.63;99984.35;103150;1281;109765;-68
2022/09/30 05:04:11;;;;;;;22.10;17.50;;;;;;;6.51;75.25;99997.24;103050;1281;99324;-67
2022/09/30 05:06:39;;;;;;;24.70;18.80;;;;;;;6.56;75.49;100000.70;103295;1281;108786;-68
2022/09/30 05:09:07;;;;;;;27.50;19.50;;;;;;;6.54;75.85;100006.02;102952;1281;96805;-68
2022/09/30 05:11:41;;;;;;;25.70;19.30;;;;;;;6.47;76.38;100012.30;103028;1283;95772;-67
2022/09/30 05:14:09;;;;;;;28.80;19.70;;;;;;;6.48;76.72;100013.00;102913;1281;109737;-68
2022/09/30 05:16:37;;;;;;;28.40;20.00;;;;;;;6.49;77.35;100014.73;103083;1281;100162;-66
2022/09/30 05:19:05;;;;;;;29.90;20.60;;;;;;;6.49;77.60;100014.20;103057;1281;108524;-67
2022/09/30 05:21:32;;;;;;;32.50;20.90;;;;;;;6.45;78.02;100007.91;103142;1281;96790;-67
2022/09/30 05:24:02;;;;;;;32.40;20.00;;;;;;;6.37;78.24;100004.34;103165;1281;95435;-66
2022/09/30 05:26:30;;;;;;;34.90;21.20;;;;;;;6.32;78.75;100000.88;103202;1281;109978;-68
2022/09/30 05:28:57;;;;;;;32.30;21.00;;;;;;;6.32;79.09;99998.77;103254;1279;98478;-73
2022/09/30 05:31:25;;;;;;;35.80;22.00;;;;;;;6.35;79.36;99996.27;102949;1281;109092;-68
2022/09/30 05:33:54;;;;;;;154.00;93.90;;;;;;;6.40;79.21;99999.36;103016;1280;95699;-68
2022/09/30 05:36:25;;;;;;;51.90;32.50;;;;;;;6.53;79.43;100005.84;104578;1281;96209;-67
2022/09/30 05:38:53;;;;;;;35.60;22.60;;;;;;;6.67;78.95;100005.09;105954;1280;109777;-68
2022/09/30 05:41:21;;;;;;;36.40;21.70;;;;;;;6.77;78.38;100011.10;103097;1281;99728;-68
2022/09/30 05:43:50;;;;;;;34.60;21.60;;;;;;;6.82;78.33;100015.78;105371;1281;108841;-69
2022/09/30 05:46:18;;;;;;;31.40;20.00;;;;;;;6.89;77.94;100017.61;103140;1281;96687;-66
2022/09/30 05:48:47;;;;;;;30.60;19.70;;;;;;;6.91;78.03;100019.16;103439;1281;95442;-67
2022/09/30 05:51:14;;;;;;;30.70;19.40;;;;;;;6.92;78.13;100017.21;102951;1282;110388;-68
2022/09/30 05:53:43;;;;;;;30.50;20.50;;;;;;;6.97;78.32;100017.48;103394;1281;97978;-64
2022/09/30 05:56:12;;;;;;;31.60;20.80;;;;;;;7.02;77.86;100023.73;103193;1281;106661;-65
2022/09/30 05:58:40;;;;;;;31.20;19.40;;;;;;;7.02;78.12;100022.67;103232;1281;95456;-66
2022/09/30 06:01:14;;;;;;;30.40;18.60;;;;;;;7.01;78.28;100023.04;103396;1281;95418;-66
2022/09/30 06:03:45;;;;;;;31.90;19.70;;;;;;;7.04;78.24;100025.63;103219;1281;109888;-64
2022/09/30 06:06:14;;;;;;;31.30;19.20;;;;;;;7.09;77.98;100028.55;103265;1281;99281;-64
2022/09/30 06:08:43;;;;;;;31.00;20.00;;;;;;;7.09;78.07;100041.27;103328;1281;108811;-64
2022/09/30 06:11:17;;;;;;;33.40;20.20;;;;;;;7.06;78.24;100045.72;103287;1281;96141;-64
2022/09/30 06:13:46;;;;;;;35.70;20.70;;;;;;;7.08;78.79;100047.46;103220;1281;95495;-66
2022/09/30 06:16:17;;;;;;;33.90;21.30;;;;;;;7.04;78.82;100048.94;103289;1281;108629;-64
2022/09/30 06:18:45;;;;;;;34.70;21.00;;;;;;;7.04;79.15;100044.35;103447;1281;99566;-65
2022/09/30 06:21:16;;;;;;;31.60;20.80;;;;;;;7.09;79.47;100046.20;103350;1282;108970;-67
2022/09/30 06:23:45;;;;;;;31.70;21.30;;;;;;;7.18;79.49;100049.02;103077;1282;95429;-66
2022/09/30 06:26:13;;;;;;;29.10;19.30;;;;;;;7.13;79.51;100054.25;103227;1281;96357;-63
2022/09/30 06:28:42;;;;;;;30.50;20.30;;;;;;;7.04;79.38;100059.00;103172;1281;109807;-64
2022/09/30 06:31:10;;;;;;;32.30;19.80;;;;;;;7.02;79.59;100061.33;103195;1281;99944;-65
2022/09/30 06:33:38;;;;;;;29.80;20.40;;;;;;;7.04;80.09;100064.47;103633;1281;108839;-65
2022/09/30 06:36:06;;;;;;;35.30;21.70;;;;;;;7.06;80.13;100064.26;103155;1281;95265;-64
2022/09/30 06:38:35;;;;;;;33.50;21.50;;;;;;;6.98;79.74;100064.57;103155;1281;96358;-65
2022/09/30 06:41:04;;;;;;;36.30;22.90;;;;;;;6.99;80.11;100061.20;103669;1281;107715;-65
2022/09/30 06:43:32;;;;;;;37.80;22.40;;;;;;;6.99;79.98;100059.27;103213;1281;99291;-66
2022/09/30 06:46:13;;;;;;;35.70;23.70;;;;;;;7.04;80.20;100057.76;103162;1281;107333;-67
2022/09/30 06:48:57;;;;;;;42.20;26.60;;;;;;;7.19;80.26;100060.31;103093;1281;96260;-61
2022/09/30 06:51:39;;;;;;;66.40;40.70;;;;;;;7.37;80.19;100064.94;102992;1281;95198;-66
2022/09/30 06:54:08;;;;;;;43.80;26.60;;;;;;;7.48;80.41;100066.69;103035;1281;109826;-66
2022/09/30 06:56:36;;;;;;;45.30;28.30;;;;;;;7.54;80.47;100069.92;103116;1282;99487;-67
2022/09/30 06:59:04;;;;;;;45.80;27.60;;;;;;;7.67;80.72;100069.67;102960;1281;108834;-66
2022/09/30 07:01:31;;;;;;;48.10;29.50;;;;;;;7.76;80.66;100065.62;101702;1281;95241;-65
2022/09/30 07:04:02;;;;;;;47.50;28.20;;;;;;;7.82;80.78;100070.63;103069;1281;96152;-68
2022/09/30 07:06:30;;;;;;;47.30;27.80;;;;;;;7.80;80.46;100076.83;102815;1282;109812;-63
2022/09/30 07:08:58;;;;;;;45.10;27.10;;;;;;;7.81;80.56;100074.00;103050;1281;99360;-65
2022/09/30 07:11:26;;;;;;;44.00;27.90;;;;;;;7.84;80.62;100071.81;102903;1281;108553;-65
2022/09/30 07:13:54;;;;;;;46.70;28.10;;;;;;;7.84;80.56;100070.92;102824;1281;95344;-67
2022/09/30 07:16:24;;;;;;;44.20;26.90;;;;;;;7.90;80.88;100072.23;102820;1281;96009;-66
2022/09/30 07:18:53;;;;;;;40.30;27.00;;;;;;;7.98;80.87;100075.07;103020;1281;109532;-65
2022/09/30 07:21:20;;;;;;;36.90;24.50;;;;;;;8.07;80.65;100071.16;103022;1281;99526;-65
2022/09/30 07:23:49;;;;;;;37.60;25.20;;;;;;;8.19;80.91;100069.15;102985;1281;107441;-67
2022/09/30 07:26:20;;;;;;;34.70;25.00;;;;;;;8.25;80.47;100077.33;102913;1284;95328;-65
2022/09/30 07:28:50;;;;;;;34.80;24.50;;;;;;;8.31;80.60;100081.24;103076;1281;95340;-66
2022/09/30 07:31:25;;;;;;;33.20;24.20;;;;;;;8.45;80.85;100083.44;102923;1281;110374;-65
2022/09/30 07:34:07;;;;;;;29.00;21.30;;;;;;;8.63;80.68;100085.70;102816;1283;98618;-64
2022/09/30 07:36:38;;;;;;;53.70;36.60;;;;;;;8.69;79.52;100091.02;102958;1281;108908;-66
2022/09/30 07:39:08;;;;;;;40.40;30.20;;;;;;;8.80;79.74;100089.73;102825;1281;96150;-65
2022/09/30 07:41:38;;;;;;;29.30;19.70;;;;;;;8.92;79.13;100091.92;102937;1281;95842;-66
2022/09/30 07:44:12;;;;;;;58.40;38.20;;;;;;;9.00;79.08;100090.47;103564;1281;109773;-66
2022/09/30 07:46:42;;;;;;;28.50;20.10;;;;;;;9.16;78.76;100097.70;102986;1281;99087;-67
2022/09/30 07:49:14;;;;;;;26.20;19.60;;;;;;;9.30;78.91;100102.83;103211;1281;108987;-68
2022/09/30 07:51:44;;;;;;;27.40;19.20;;;;;;;9.43;78.22;100105.68;103252;1281;95362;-66
2022/09/30 07:54:16;;;;;;;24.50;18.00;;;;;;;9.52;77.77;100109.52;102768;1283;96417;-68
2022/09/30 07:56:45;;;;;;;27.10;19.70;;;;;;;9.56;77.10;100106.59;102887;1284;109897;-66
2022/09/30 07:59:37;;;;;;;26.20;18.40;;;;;;;9.68;77.18;100112.28;102966;1281;99695;-66
2022/09/30 08:02:09;;;;;;;25.90;18.30;;;;;;;9.79;76.41;100117.66;102818;1281;108660;-66
2022/09/30 08:04:37;;;;;;;26.10;17.30;;;;;;;9.99;76.94;100125.07;102741;1284;96583;-65
2022/09/30 08:07:12;;;;;;;24.80;17.80;;;;;;;10.24;76.95;100124.37;102929;1281;95726;-66
2022/09/30 08:09:40;;;;;;;28.90;20.10;;;;;;;10.45;76.26;100127.31;103057;1281;110074;-66
2022/09/30 08:12:09;;;;;;;25.90;17.90;;;;;;;10.57;75.21;100123.77;103178;1281;101129;-69
2022/09/30 08:14:36;;;;;;;22.80;16.50;;;;;;;10.59;74.59;100122.64;102711;1281;108807;-69
2022/09/30 08:17:05;;;;;;;22.20;16.10;;;;;;;10.56;74.21;100125.56;102799;1281;96681;-68
2022/09/30 08:19:33;;;;;;;22.90;17.20;;;;;;;10.55;74.40;100124.02;102902;1281;96116;-68
2022/09/30 08:22:00;;;;;;;25.20;18.20;;;;;;;10.65;74.64;100125.66;102727;1284;109685;-68
2022/09/30 08:24:29;;;;;;;24.50;17.90;;;;;;;10.77;74.93;100124.56;103021;1281;100060;-65
2022/09/30 08:26:57;;;;;;;23.60;16.60;;;;;;;10.96;74.93;100127.00;102831;1281;108464;-69
2022/09/30 08:29:25;;;;;;;21.70;17.50;;;;;;;11.06;74.49;100131.62;102725;1284;95460;-67
2022/09/30 08:32:14;;;;;;;24.70;18.50;;;;;;;11.25;74.45;100130.99;102957;1281;95592;-70
2022/09/30 08:34:42;;;;;;;25.60;18.90;;;;;;;11.37;73.82;100131.48;103132;1281;110956;-65
2022/09/30 08:37:10;;;;;;;23.70;16.70;;;;;;;11.47;73.59;100134.34;102864;1281;99467;-64
2022/09/30 08:39:38;;;;;;;23.50;17.30;;;;;;;11.57;73.39;100132.61;102436;1284;109128;-66
2022/09/30 08:42:27;;;;;;;25.10;17.60;;;;;;;11.70;73.38;100137.85;103270;1281;96002;-66
2022/09/30 08:45:35;;;;;;;24.50;18.20;;;;;;;11.77;72.90;100137.60;102769;1281;95188;-64
2022/09/30 08:48:23;;;;;;;20.60;15.40;;;;;;;11.82;72.58;100139.17;102875;1281;109060;-64
2022/09/30 08:50:56;;;;;;;23.00;16.30;;;;;;;11.83;72.04;100143.42;102359;1281;99316;-65
2022/09/30 08:53:29;;;;;;;23.10;16.70;;;;;;;11.81;71.76;100142.41;102780;1281;108811;-67
2022/09/30 08:56:01;;;;;;;21.70;15.90;;;;;;;11.83;72.46;100143.94;106911;1281;93559;-64
2022/09/30 08:58:36;;;;;;;20.40;14.20;;;;;;;11.89;72.28;100144.65;106974;1281;94133;-65
2022/09/30 09:01:18;;;;;;;19.20;14.20;;;;;;;11.97;72.38;100145.27;106944;1280;109238;-66
2022/09/30 09:03:46;;;;;;;18.50;13.90;;;;;;;12.06;72.46;100149.78;105991;1281;100112;-65
2022/09/30 09:06:35;;;;;;;19.40;13.70;;;;;;;12.12;71.99;100152.04;102772;1281;108750;-66
2022/09/30 09:09:18;;;;;;;19.10;13.70;;;;;;;12.07;71.37;100154.69;102425;1281;95235;-66
2022/09/30 09:11:46;;;;;;;19.10;14.00;;;;;;;12.13;71.42;100156.79;102724;1281;96225;-64
2022/09/30 09:14:31;;;;;;;19.40;14.60;;;;;;;12.20;71.37;100157.77;102891;1281;109971;-66
2022/09/30 09:17:17;;;;;;;19.30;14.80;;;;;;;12.24;71.63;100159.60;102761;1281;99989;-66
2022/09/30 09:20:17;;;;;;;19.90;14.10;;;;;;;12.27;71.89;100161.27;102857;1280;107472;-65
2022/09/30 09:22:45;;;;;;;19.60;14.40;;;;;;;12.37;71.50;100158.39;102809;1281;95973;-65
2022/09/30 09:25:20;;;;;;;21.10;14.80;;;;;;;12.44;71.13;100161.02;102694;1281;95601;-66
2022/09/30 09:27:56;;;;;;;22.80;17.20;;;;;;;12.41;70.67;100158.23;102810;1281;109786;-65
2022/09/30 09:30:44;;;;;;;19.30;13.60;;;;;;;12.37;70.48;100156.08;103233;1281;98678;-66
2022/09/30 09:33:20;;;;;;;17.90;12.50;;;;;;;12.32;69.72;100153.41;102820;1281;108900;-67
2022/09/30 09:36:02;;;;;;;17.80;13.70;;;;;;;12.29;69.14;100156.39;102897;1281;95430;-69
2022/09/30 09:38:34;;;;;;;19.20;13.20;;;;;;;12.29;69.61;100158.17;102865;1281;95271;-65
2022/09/30 09:41:14;;;;;;;19.30;13.20;;;;;;;12.27;68.86;100155.75;103021;1281;108931;-68
2022/09/30 09:43:59;;;;;;;18.80;13.20;;;;;;;12.35;70.00;100149.39;102961;1281;99407;-68
2022/09/30 09:46:33;;;;;;;18.70;13.20;;;;;;;12.46;69.75;100144.16;102899;1281;108391;-67
2022/09/30 09:49:14;;;;;;;20.90;13.60;;;;;;;12.56;68.34;100149.16;102875;1281;96177;-69
2022/09/30 09:51:50;;;;;;;17.40;12.00;;;;;;;12.65;69.00;100151.82;102911;1281;95307;-67
2022/09/30 09:54:21;;;;;;;19.10;13.30;;;;;;;12.76;68.52;100150.14;102945;1281;109640;-69
2022/09/30 09:56:51;;;;;;;16.10;11.70;;;;;;;12.92;68.85;100143.98;103141;1281;99494;-67
2022/09/30 09:59:19;;;;;;;16.50;11.10;;;;;;;13.00;66.65;100140.65;102890;1280;109019;-67
2022/09/30 10:01:50;;;;;;;16.70;12.00;;;;;;;13.11;66.13;100139.66;103356;1281;95330;-67
2022/09/30 10:04:32;;;;;;;16.50;11.30;;;;;;;13.27;66.27;100140.95;102789;1281;95655;-68
2022/09/30 10:07:11;;;;;;;15.80;11.10;;;;;;;13.43;65.76;100134.96;102886;1281;109627;-66
2022/09/30 10:09:41;;;;;;;288.50;247.10;;;;;;;13.63;65.10;100134.33;102837;1281;99700;-62
2022/09/30 10:12:09;;;;;;;25.70;18.90;;;;;;;13.67;63.29;100132.17;103262;1281;109384;-66
2022/09/30 10:14:45;;;;;;;18.80;13.10;;;;;;;13.66;64.04;100132.73;103330;1280;96815;-67
2022/09/30 10:17:33;;;;;;;18.60;13.60;;;;;;;13.71;64.61;100130.55;102966;1280;95318;-67
2022/09/30 10:20:23;;;;;;;18.70;13.60;;;;;;;13.60;64.07;100131.39;102939;1282;109777;-67
2022/09/30 10:23:00;;;;;;;20.00;13.90;;;;;;;13.57;64.84;100133.14;103182;1281;99410;-68
2022/09/30 10:25:29;;;;;;;17.50;12.70;;;;;;;13.59;64.90;100135.38;103489;1280;108844;-67
2022/09/30 10:28:00;;;;;;;18.00;12.90;;;;;;;13.61;63.57;100131.19;103234;1281;96525;-65
2022/09/30 10:30:45;;;;;;;230.90;189.20;;;;;;;13.57;64.06;100135.63;103275;1281;95734;-64
2022/09/30 10:33:22;;;;;;;16.10;11.60;;;;;;;13.59;63.80;100143.05;103119;1281;111071;-69
2022/09/30 10:35:54;;;;;;;13.70;10.40;;;;;;;13.58;62.53;100148.61;103098;1281;99466;-68
2022/09/30 10:38:25;;;;;;;14.50;10.70;;;;;;;13.59;62.73;100150.16;103203;1281;109313;-68
2022/09/30 10:40:54;;;;;;;13.40;10.00;;;;;;;13.69;62.28;100148.14;103091;1281;95881;-69
2022/09/30 10:43:36;;;;;;;14.70;11.00;;;;;;;13.66;61.48;100153.07;102981;1281;95631;-69
2022/09/30 10:46:06;;;;;;;13.70;10.20;;;;;;;13.69;62.74;100150.98;102894;1281;109917;-69
2022/09/30 10:48:55;;;;;;;13.60;10.30;;;;;;;13.80;62.61;100149.63;103131;1281;98405;-69
2022/09/30 10:51:35;;;;;;;13.40;10.90;;;;;;;13.85;62.15;100152.79;102828;1280;108954;-68
2022/09/30 10:54:04;;;;;;;15.50;10.80;;;;;;;13.97;62.67;100152.09;103180;1281;95455;-68
2022/09/30 10:56:38;;;;;;;16.90;11.40;;;;;;;14.08;62.94;100147.68;103296;1281;95567;-66
2022/09/30 10:59:18;;;;;;;15.20;11.60;;;;;;;14.16;62.60;100149.48;103178;1281;109773;-66
2022/09/30 11:01:53;;;;;;;16.10;12.30;;;;;;;14.19;62.91;100150.39;103318;1281;99362;-69
2022/09/30 11:04:28;;;;;;;15.30;11.10;;;;;;;14.16;62.30;100154.45;103099;1279;107204;-68
2022/09/30 11:07:14;;;;;;;15.40;10.90;;;;;;;14.07;62.16;100152.02;103117;1281;95956;-70
2022/09/30 11:09:52;;;;;;;16.50;11.60;;;;;;;14.10;62.62;100150.65;103603;1282;95304;-69
2022/09/30 11:12:40;;;;;;;17.40;12.40;;;;;;;14.13;62.79;100154.80;103701;1281;110317;-67
2022/09/30 11:15:39;;;;;;;15.20;11.10;;;;;;;14.10;62.51;100152.60;103208;1282;99402;-67
2022/09/30 11:18:10;;;;;;;16.50;11.60;;;;;;;13.97;61.15;100152.98;102809;1281;108739;-68
2022/09/30 11:20:56;;;;;;;17.70;11.90;;;;;;;13.89;62.04;100153.53;102941;1282;95302;-65
2022/09/30 11:23:33;;;;;;;16.80;12.10;;;;;;;13.81;62.80;100153.86;103048;1281;95973;-69
2022/09/30 11:26:04;;;;;;;16.10;11.30;;;;;;;13.83;63.42;100156.11;103198;1281;109644;-66
2022/09/30 11:28:55;;;;;;;15.60;11.70;;;;;;;13.84;62.39;100156.41;102918;1282;99267;-68
2022/09/30 11:31:34;;;;;;;14.60;10.40;;;;;;;13.76;62.84;100150.52;102970;1282;108897;-68
2022/09/30 11:34:22;;;;;;;16.60;10.20;;;;;;;13.70;63.42;100150.24;103403;1281;95742;-68
2022/09/30 11:37:29;;;;;;;16.10;11.50;;;;;;;13.62;63.08;100148.63;103011;1282;95425;-67
2022/09/30 11:40:21;;;;;;;14.00;9.20;;;;;;;13.60;63.34;100146.05;102782;1281;109794;-69
2022/09/30 11:43:21;;;;;;;14.30;9.30;;;;;;;13.54;62.86;100146.44;103204;1281;98464;-70